Time;durP1;ratioP1;P1;durP2;ratioP2;P2;SDS_P1;SDS_P2;PMS_P1;PMS_P2;Temp;Humidity;BMP_temperature;BMP_pressure;BME280_temperature;BME280_humidity;BME280_pressure;Samples;Min_cycle;Max_cycle;Signal;HPM_P1;HPM_P2
2023/06/08 00:02:19;;;;;;;7.15;5.40;;;19.60;99.90;;;;;;5011399;28;20030;-50
2023/06/08 00:04:45;;;;;;;7.22;5.55;;;19.60;99.90;;;;;;5012818;28;20047;-50
2023/06/08 00:07:14;;;;;;;6.50;4.68;;;19.60;99.90;;;;;;5012896;28;20025;-48
2023/06/08 00:09:40;;;;;;;8.93;5.93;;;19.60;99.90;;;;;;5012974;28;20029;-47
2023/06/08 00:12:06;;;;;;;9.23;6.07;;;19.60;99.90;;;;;;5012158;28;20132;-51
2023/06/08 00:14:34;;;;;;;6.63;5.28;;;19.60;99.90;;;;;;5012500;28;20037;-46
2023/06/08 00:17:03;;;;;;;8.65;5.85;;;19.50;99.90;;;;;;5012851;28;20033;-47
2023/06/08 00:19:29;;;;;;;8.85;6.05;;;19.40;99.90;;;;;;5011691;28;20022;-47
2023/06/08 00:21:56;;;;;;;7.18;5.45;;;19.40;99.90;;;;;;5012475;28;20079;-52
2023/06/08 00:24:28;;;;;;;7.72;6.30;;;19.40;99.90;;;;;;5110267;27;20411;-51
2023/06/08 00:26:54;;;;;;;6.80;5.57;;;19.40;99.90;;;;;;5110099;28;20027;-49
2023/06/08 00:29:20;;;;;;;11.60;5.88;;;19.40;99.90;;;;;;5111985;28;20020;-55
2023/06/08 00:31:45;;;;;;;6.88;5.70;;;19.30;99.90;;;;;;5113097;28;20475;-47
2023/06/08 00:34:11;;;;;;;10.05;6.63;;;19.30;99.90;;;;;;5110099;28;20290;-50
2023/06/08 00:36:37;;;;;;;11.27;5.88;;;19.20;99.90;;;;;;5107783;28;20023;-48
2023/06/08 00:39:02;;;;;;;8.38;6.13;;;19.10;99.90;;;;;;5109056;28;20047;-49
2023/06/08 00:41:29;;;;;;;8.88;5.90;;;19.10;99.90;;;;;;5108502;28;20028;-51
2023/06/08 00:43:54;;;;;;;7.35;6.25;;;19.10;99.90;;;;;;5108501;28;20015;-48
2023/06/08 00:46:21;;;;;;;7.80;5.90;;;19.00;99.90;;;;;;5107617;28;20237;-52
2023/06/08 00:48:47;;;;;;;7.28;6.25;;;19.10;99.90;;;;;;5108111;28;20073;-47
2023/06/08 00:51:13;;;;;;;10.77;6.30;;;19.00;99.90;;;;;;5108428;28;20433;-49
2023/06/08 00:53:39;;;;;;;6.40;5.80;;;18.90;99.90;;;;;;5108374;28;20048;-52
2023/06/08 00:56:06;;;;;;;10.52;6.85;;;18.90;99.90;;;;;;5108566;28;20024;-45
2023/06/08 00:58:33;;;;;;;9.93;6.07;;;18.90;99.90;;;;;;5107300;28;20031;-48
2023/06/08 01:00:59;;;;;;;8.48;6.22;;;18.90;99.90;;;;;;5108185;28;20157;-51
2023/06/08 01:03:35;;;;;;;7.35;6.47;;;18.80;99.90;;;;;;5108104;28;20103;-47
2023/06/08 01:06:07;;;;;;;9.77;6.13;;;18.80;99.90;;;;;;5108605;28;20111;-47
2023/06/08 01:08:42;;;;;;;8.82;6.15;;;18.70;99.90;;;;;;5108568;28;20031;-51
2023/06/08 01:11:50;;;;;;;7.40;6.03;;;18.70;99.90;;;;;;5108031;28;20055;-50
2023/06/08 01:14:38;;;;;;;6.88;5.60;;;18.70;99.90;;;;;;5066046;28;20071;-50
2023/06/08 01:17:09;;;;;;;8.75;7.20;;;18.70;99.90;;;;;;5108270;28;20090;-49
2023/06/08 01:19:48;;;;;;;7.05;5.90;;;18.60;99.90;;;;;;5108324;28;20518;-47
2023/06/08 01:22:47;;;;;;;6.65;6.00;;;18.60;99.90;;;;;;5106278;28;20087;-51
2023/06/08 01:25:14;;;;;;;8.65;6.20;;;18.50;99.90;;;;;;5107372;28;20034;-47
2023/06/08 01:27:39;;;;;;;7.95;6.32;;;18.50;99.90;;;;;;5108167;28;20019;-49
2023/06/08 01:30:06;;;;;;;8.52;7.38;;;18.50;99.90;;;;;;5108089;28;20294;-45
2023/06/08 01:32:32;;;;;;;10.68;6.75;;;18.50;99.90;;;;;;5108006;28;20459;-48
2023/06/08 01:34:58;;;;;;;9.13;6.93;;;18.50;99.90;;;;;;5099044;28;20042;-51
2023/06/08 01:37:33;;;;;;;11.65;6.68;;;18.50;99.90;;;;;;5094535;28;20388;-46
2023/06/08 01:40:09;;;;;;;12.13;6.70;;;18.50;99.90;;;;;;5094502;28;20020;-48
2023/06/08 01:42:36;;;;;;;9.13;6.60;;;18.50;99.90;;;;;;5092696;28;20289;-50
2023/06/08 01:45:09;;;;;;;11.57;7.65;;;18.50;99.90;;;;;;5093852;28;20024;-49
2023/06/08 01:47:42;;;;;;;14.43;6.45;;;18.50;99.90;;;;;;5094586;28;20020;-50
2023/06/08 01:50:08;;;;;;;9.30;6.43;;;18.50;99.90;;;;;;5093005;28;20016;-47
2023/06/08 01:52:34;;;;;;;7.53;5.90;;;18.50;99.90;;;;;;5093906;28;20474;-46
2023/06/08 01:54:59;;;;;;;12.48;6.90;;;18.40;99.90;;;;;;5092345;28;20113;-49
2023/06/08 01:57:25;;;;;;;8.25;6.50;;;18.40;99.90;;;;;;5094049;28;20050;-47
2023/06/08 01:59:50;;;;;;;11.18;7.18;;;18.40;99.90;;;;;;5093234;28;20494;-47
2023/06/08 02:02:16;;;;;;;8.13;6.22;;;18.40;99.90;;;;;;5093413;28;20028;-48
2023/06/08 02:04:42;;;;;;;9.52;6.10;;;18.30;99.90;;;;;;5093974;28;20024;-45
2023/06/08 02:07:07;;;;;;;10.65;6.90;;;18.30;99.90;;;;;;5094100;28;20043;-49
2023/06/08 02:09:33;;;;;;;13.48;6.20;;;18.20;99.90;;;;;;5093297;28;20051;-49
2023/06/08 02:12:08;;;;;;;8.25;6.13;;;18.20;99.90;;;;;;5093359;28;20550;-50
2023/06/08 02:14:34;;;;;;;8.48;7.28;;;18.10;99.90;;;;;;5093626;28;20028;-51
2023/06/08 02:17:03;;;;;;;7.60;6.80;;;18.10;99.90;;;;;;5093666;28;20051;-47
2023/06/08 02:19:30;;;;;;;7.68;6.60;;;18.10;99.90;;;;;;5093674;28;20016;-49
2023/06/08 02:21:57;;;;;;;10.13;7.15;;;18.10;99.90;;;;;;5093066;28;20388;-46
2023/06/08 02:24:22;;;;;;;7.68;6.65;;;18.10;99.90;;;;;;5093026;28;20399;-48
2023/06/08 02:26:52;;;;;;;8.25;6.15;;;18.10;99.90;;;;;;5093472;28;20024;-49
2023/06/08 02:29:17;;;;;;;8.00;6.22;;;18.00;99.90;;;;;;5093447;28;20031;-48
2023/06/08 02:31:43;;;;;;;10.15;6.28;;;18.00;99.90;;;;;;5093079;28;20024;-48
2023/06/08 02:34:08;;;;;;;9.93;6.47;;;18.00;99.90;;;;;;5090568;28;20039;-50
2023/06/08 02:36:34;;;;;;;8.68;6.43;;;17.90;99.90;;;;;;5093213;28;20024;-49
2023/06/08 02:39:00;;;;;;;13.52;6.85;;;18.00;99.90;;;;;;5093474;28;20024;-52
2023/06/08 02:41:26;;;;;;;7.63;6.47;;;17.90;99.90;;;;;;5092801;28;20020;-48
2023/06/08 02:43:51;;;;;;;7.75;6.20;;;17.90;99.90;;;;;;5092724;28;20395;-51
2023/06/08 02:46:17;;;;;;;8.80;6.30;;;17.90;99.90;;;;;;5092034;28;20047;-50
2023/06/08 02:48:42;;;;;;;6.75;5.80;;;17.80;99.90;;;;;;5092110;28;20552;-53
2023/06/08 02:51:08;;;;;;;8.30;6.63;;;17.80;99.90;;;;;;5092647;28;20031;-49
2023/06/08 02:53:33;;;;;;;10.07;6.75;;;17.80;99.90;;;;;;5092450;28;20085;-51
2023/06/08 02:55:59;;;;;;;6.93;6.32;;;17.80;99.90;;;;;;5092879;28;20032;-52
2023/06/08 02:58:24;;;;;;;10.05;6.45;;;17.70;99.90;;;;;;5092746;28;20036;-50
2023/06/08 03:01:00;;;;;;;7.28;6.10;;;17.70;99.90;;;;;;5092467;28;20028;-53
2023/06/08 03:03:29;;;;;;;6.85;6.18;;;17.70;99.90;;;;;;5092312;28;20027;-54
2023/06/08 03:05:58;;;;;;;10.55;6.80;;;17.70;99.90;;;;;;5092605;28;20016;-49
2023/06/08 03:08:28;;;;;;;9.15;5.88;;;17.70;99.90;;;;;;5092627;28;20502;-50
2023/06/08 03:10:54;;;;;;;8.65;6.45;;;17.70;99.90;;;;;;5091031;28;20024;-54
2023/06/08 03:13:21;;;;;;;10.68;7.07;;;17.60;99.90;;;;;;5092529;28;20059;-50
2023/06/08 03:15:46;;;;;;;10.85;6.63;;;17.60;99.90;;;;;;5091207;28;20081;-52
2023/06/08 03:18:12;;;;;;;9.20;7.00;;;17.50;99.90;;;;;;5091191;28;20028;-54
2023/06/08 03:20:37;;;;;;;10.77;6.90;;;17.60;99.90;;;;;;5091104;28;20119;-50
2023/06/08 03:23:04;;;;;;;8.90;6.75;;;17.60;99.90;;;;;;5091437;28;20093;-52
2023/06/08 03:25:30;;;;;;;7.90;6.93;;;17.60;99.90;;;;;;5092261;28;20598;-46
2023/06/08 03:27:55;;;;;;;9.18;6.82;;;17.60;99.90;;;;;;5090972;28;20127;-50
2023/06/08 03:30:21;;;;;;;12.38;6.32;;;17.50;99.90;;;;;;5091207;28;20092;-47
2023/06/08 03:32:48;;;;;;;8.13;6.50;;;17.50;99.90;;;;;;5090914;28;20517;-48
2023/06/08 03:35:17;;;;;;;10.68;7.03;;;17.50;99.90;;;;;;5092415;28;20031;-47
2023/06/08 03:37:43;;;;;;;7.57;6.78;;;17.50;99.90;;;;;;5092745;28;20376;-49
2023/06/08 03:40:09;;;;;;;14.35;6.40;;;17.40;99.90;;;;;;5092083;28;20063;-50
2023/06/08 03:42:35;;;;;;;9.00;7.10;;;17.40;99.90;;;;;;5091608;28;20487;-54
2023/06/08 03:45:00;;;;;;;10.43;6.68;;;17.40;99.90;;;;;;5090558;28;20055;-50
2023/06/08 03:47:26;;;;;;;7.35;6.50;;;17.40;99.90;;;;;;5091947;28;20026;-47
2023/06/08 03:49:52;;;;;;;7.88;6.72;;;17.30;99.90;;;;;;5090974;28;20073;-53
2023/06/08 03:52:18;;;;;;;8.13;6.30;;;17.30;99.90;;;;;;5091266;28;20028;-51
2023/06/08 03:54:45;;;;;;;8.63;6.70;;;17.30;99.90;;;;;;5091495;28;20020;-47
2023/06/08 03:57:10;;;;;;;7.75;6.70;;;17.30;99.90;;;;;;5091629;28;20069;-49
2023/06/08 03:59:36;;;;;;;9.30;6.35;;;17.40;99.90;;;;;;5090420;28;20024;-48
2023/06/08 04:02:02;;;;;;;11.75;7.00;;;17.40;99.90;;;;;;5091459;28;20126;-46
2023/06/08 04:04:29;;;;;;;13.75;6.55;;;17.40;99.90;;;;;;5091330;28;20024;-47
2023/06/08 04:07:00;;;;;;;8.13;6.95;;;17.40;99.90;;;;;;5091494;28;20016;-46
2023/06/08 04:09:29;;;;;;;6.82;6.18;;;17.50;99.90;;;;;;5091871;28;20020;-48
2023/06/08 04:11:56;;;;;;;10.65;7.10;;;17.50;99.90;;;;;;5091391;28;20028;-47
2023/06/08 04:14:21;;;;;;;8.40;6.70;;;17.50;99.90;;;;;;5091740;28;20024;-47
2023/06/08 04:16:47;;;;;;;9.68;6.72;;;17.50;99.90;;;;;;5090265;28;20027;-47
2023/06/08 04:19:13;;;;;;;6.55;5.95;;;17.60;99.90;;;;;;5090486;28;20372;-46
2023/06/08 04:21:39;;;;;;;9.48;7.70;;;17.60;99.90;;;;;;5090995;28;20492;-50
2023/06/08 04:24:05;;;;;;;7.28;6.55;;;17.70;99.90;;;;;;5091063;28;20024;-50
2023/06/08 04:26:30;;;;;;;12.80;7.20;;;17.70;99.90;;;;;;5090256;28;20412;-49
2023/06/08 04:28:56;;;;;;;15.10;6.82;;;17.70;99.90;;;;;;5091237;28;20028;-48
2023/06/08 04:31:22;;;;;;;7.57;6.57;;;17.80;99.90;;;;;;5090737;28;20425;-49
2023/06/08 04:33:47;;;;;;;7.45;6.32;;;17.90;99.90;;;;;;5090952;28;20036;-44
2023/06/08 04:36:13;;;;;;;9.00;6.28;;;17.80;99.90;;;;;;5091142;28;20024;-54
2023/06/08 04:38:38;;;;;;;14.25;7.00;;;17.90;99.90;;;;;;5091177;28;20035;-47
2023/06/08 04:41:07;;;;;;;7.95;7.15;;;17.90;99.90;;;;;;5090881;28;20396;-48
2023/06/08 04:43:34;;;;;;;6.93;6.18;;;17.90;99.90;;;;;;5090828;28;20137;-52
2023/06/08 04:46:04;;;;;;;10.00;7.43;;;18.00;99.90;;;;;;5090906;28;20031;-48
2023/06/08 04:48:33;;;;;;;7.40;6.18;;;18.10;99.90;;;;;;5090338;28;20054;-46
2023/06/08 04:51:02;;;;;;;9.10;6.47;;;18.30;99.90;;;;;;5090975;28;20518;-44
2023/06/08 04:53:34;;;;;;;7.53;6.60;;;18.60;99.90;;;;;;5090945;28;20032;-46
2023/06/08 04:56:01;;;;;;;6.70;6.05;;;;;;;;;;5091217;28;20568;-46
2023/06/08 04:58:30;;;;;;;8.73;6.38;;;19.20;99.90;;;;;;5091522;28;20028;-47
2023/06/08 05:00:56;;;;;;;7.25;6.50;;;19.70;99.90;;;;;;5089666;28;20069;-46
2023/06/08 05:03:23;;;;;;;6.90;5.25;;;20.30;99.90;;;;;;5090669;28;20109;-47
2023/06/08 05:05:50;;;;;;;7.75;6.10;;;20.80;99.90;;;;;;5091415;28;20020;-45
2023/06/08 05:08:15;;;;;;;8.95;5.53;;;21.30;99.90;;;;;;5091118;28;20012;-52
2023/06/08 05:10:41;;;;;;;6.97;6.05;;;21.70;99.90;;;;;;5092498;28;20171;-50
2023/06/08 05:13:07;;;;;;;6.90;5.97;;;22.10;99.90;;;;;;5105294;22;20427;-48
2023/06/08 05:15:32;;;;;;;5.80;5.30;;;22.40;99.00;;;;;;5074566;28;20029;-52
2023/06/08 05:17:58;;;;;;;6.85;5.60;;;22.30;98.90;;;;;;5073310;28;20017;-50
2023/06/08 05:20:25;;;;;;;6.70;5.90;;;22.40;99.00;;;;;;5074521;28;20020;-50
2023/06/08 05:22:52;;;;;;;10.20;5.55;;;22.30;98.80;;;;;;5082275;28;20059;-52
2023/06/08 05:25:17;;;;;;;9.18;6.07;;;22.40;98.90;;;;;;5094451;28;20024;-53
2023/06/08 05:27:43;;;;;;;7.47;5.97;;;22.60;98.50;;;;;;5094663;28;20026;-54
2023/06/08 05:30:09;;;;;;;7.80;5.28;;;22.70;97.90;;;;;;5094707;28;20115;-50
2023/06/08 05:32:34;;;;;;;7.05;6.38;;;22.70;98.00;;;;;;5094383;28;20051;-54
2023/06/08 05:35:00;;;;;;;5.60;5.10;;;22.80;98.00;;;;;;5094284;28;20048;-50
2023/06/08 05:37:26;;;;;;;6.82;5.20;;;22.80;98.10;;;;;;5093991;28;20063;-52
2023/06/08 05:39:52;;;;;;;9.13;4.47;;;22.90;97.70;;;;;;5094810;28;20031;-51
2023/06/08 05:42:17;;;;;;;5.22;4.30;;;23.30;97.30;;;;;;5075620;28;20020;-50
2023/06/08 05:44:44;;;;;;;6.03;5.03;;;23.70;96.80;;;;;;5075919;28;20020;-53
2023/06/08 05:47:09;;;;;;;5.93;5.35;;;24.20;95.50;;;;;;5094283;28;20073;-51
2023/06/08 05:49:35;;;;;;;5.78;4.90;;;24.40;95.00;;;;;;5093166;28;20384;-54
2023/06/08 05:52:00;;;;;;;5.57;4.95;;;24.40;94.90;;;;;;5093881;28;20557;-48
2023/06/08 05:54:26;;;;;;;7.15;5.20;;;24.50;95.00;;;;;;5093651;28;20067;-53
2023/06/08 05:56:51;;;;;;;5.15;4.75;;;24.50;94.70;;;;;;5094086;28;20054;-53
2023/06/08 05:59:17;;;;;;;10.00;5.85;;;24.70;94.40;;;;;;5094042;28;20028;-53
2023/06/08 06:01:42;;;;;;;7.97;4.97;;;24.50;94.40;;;;;;5093541;28;20039;-51
2023/06/08 06:04:08;;;;;;;13.10;4.93;;;24.40;94.60;;;;;;5093420;28;20039;-53
2023/06/08 06:06:35;;;;;;;7.78;4.85;;;24.60;94.50;;;;;;5093859;28;20024;-52
2023/06/08 06:09:02;;;;;;;6.60;5.20;;;;;;;;;;5093722;28;20103;-50
2023/06/08 06:11:28;;;;;;;5.80;5.30;;;24.50;97.00;;;;;;5093446;28;20016;-48
2023/06/08 06:13:53;;;;;;;6.85;4.95;;;24.20;95.00;;;;;;5093284;28;20103;-49
2023/06/08 06:16:19;;;;;;;6.82;4.65;;;24.60;97.60;;;;;;5075460;28;20069;-49
2023/06/08 06:18:47;;;;;;;6.72;4.30;;;24.70;94.30;;;;;;5093669;28;20024;-53
2023/06/08 06:21:13;;;;;;;6.22;4.43;;;24.90;94.10;;;;;;5093187;28;20507;-50
2023/06/08 06:23:39;;;;;;;11.18;4.47;;;25.00;93.90;;;;;;5093078;28;20028;-49
2023/06/08 06:26:05;;;;;;;7.63;5.28;;;25.10;93.80;;;;;;5093535;28;20028;-50
2023/06/08 06:28:31;;;;;;;7.97;5.20;;;25.10;93.50;;;;;;5093538;28;20020;-48
2023/06/08 06:30:56;;;;;;;4.93;4.53;;;25.20;99.90;;;;;;5093124;28;20132;-54
2023/06/08 06:33:22;;;;;;;6.82;4.35;;;25.60;93.80;;;;;;5093146;28;20388;-54
2023/06/08 06:35:47;;;;;;;8.35;5.03;;;25.90;98.70;;;;;;5075391;28;20112;-48
2023/06/08 06:38:13;;;;;;;7.78;4.38;;;26.20;92.50;;;;;;5093333;28;20028;-52
2023/06/08 06:40:38;;;;;;;7.50;4.65;;;25.70;92.80;;;;;;5093334;28;20371;-55
2023/06/08 06:43:04;;;;;;;7.53;4.88;;;25.80;92.70;;;;;;5092323;28;20043;-54
2023/06/08 06:45:30;;;;;;;7.45;4.60;;;25.60;93.00;;;;;;5093132;28;20024;-54
2023/06/08 06:47:55;;;;;;;6.75;4.90;;;25.30;93.40;;;;;;5093014;28;20517;-53
2023/06/08 06:50:21;;;;;;;4.65;4.22;;;25.40;93.50;;;;;;5092988;28;20097;-51
2023/06/08 06:52:46;;;;;;;5.57;4.45;;;25.60;93.70;;;;;;5091197;28;20028;-52
2023/06/08 06:55:12;;;;;;;6.28;5.00;;;26.20;93.20;;;;;;5092732;28;20085;-53
2023/06/08 06:57:37;;;;;;;4.53;4.13;;;26.70;92.10;;;;;;5092873;28;20038;-52
2023/06/08 07:00:10;;;;;;;7.38;4.32;;;26.50;91.70;;;;;;5093200;28;20028;-50
2023/06/08 07:02:37;;;;;;;9.80;4.47;;;26.40;92.50;;;;;;5092298;28;20036;-52
2023/06/08 07:05:07;;;;;;;7.07;4.85;;;26.70;91.70;;;;;;5092310;28;20030;-55
2023/06/08 07:07:36;;;;;;;6.32;4.68;;;26.50;91.70;;;;;;5092701;28;20020;-52
2023/06/08 07:10:02;;;;;;;8.50;4.60;;;26.80;92.00;;;;;;5092799;28;20086;-55
2023/06/08 07:12:29;;;;;;;6.38;4.40;;;27.10;91.20;;;;;;5092240;28;20048;-54
2023/06/08 07:14:55;;;;;;;9.82;4.85;;;26.90;91.00;;;;;;5093178;28;20093;-54
2023/06/08 07:17:20;;;;;;;5.57;4.63;;;26.60;91.60;;;;;;5092540;28;20032;-53
2023/06/08 07:19:47;;;;;;;8.15;4.57;;;26.70;91.20;;;;;;5092473;28;20028;-51
2023/06/08 07:22:12;;;;;;;6.20;4.70;;;26.70;91.00;;;;;;5089267;28;20120;-48
2023/06/08 07:24:38;;;;;;;6.78;5.53;;;26.90;90.80;;;;;;5091329;28;20069;-54
2023/06/08 07:27:04;;;;;;;5.47;4.75;;;26.90;90.60;;;;;;5074243;28;20020;-50
2023/06/08 07:29:29;;;;;;;4.93;4.28;;;26.60;90.90;;;;;;5092630;28;20028;-49
2023/06/08 07:31:56;;;;;;;6.93;4.03;;;26.60;91.20;;;;;;5091361;28;20027;-50
2023/06/08 07:34:21;;;;;;;5.20;4.30;;;26.80;91.10;;;;;;5073609;28;20053;-50
2023/06/08 07:36:47;;;;;;;12.85;4.85;;;26.60;90.60;;;;;;5092121;28;20053;-50
2023/06/08 07:39:13;;;;;;;5.38;4.38;;;26.90;90.70;;;;;;5092215;28;20078;-50
2023/06/08 07:41:38;;;;;;;7.28;4.22;;;27.10;90.50;;;;;;5091802;28;20055;-50
2023/06/08 07:44:04;;;;;;;7.82;4.25;;;26.90;90.40;;;;;;5091540;28;20020;-53
2023/06/08 07:46:31;;;;;;;6.13;4.68;;;26.90;90.50;;;;;;5092013;28;20563;-51
2023/06/08 07:48:56;;;;;;;5.85;4.63;;;27.20;90.50;;;;;;5091930;28;20044;-51
2023/06/08 07:51:22;;;;;;;6.00;4.78;;;27.10;90.30;;;;;;5091492;28;20063;-54
2023/06/08 07:53:48;;;;;;;9.23;4.90;;;26.90;90.80;;;;;;5091536;28;20394;-51
2023/06/08 07:56:14;;;;;;;9.35;5.20;;;26.50;91.20;;;;;;5073745;28;20030;-53
2023/06/08 07:58:40;;;;;;;6.50;4.72;;;26.70;91.30;;;;;;5092084;28;20020;-51
2023/06/08 08:01:05;;;;;;;8.80;5.47;;;27.20;90.80;;;;;;5090828;28;20035;-52
2023/06/08 08:03:36;;;;;;;8.98;5.18;;;28.00;90.60;;;;;;5091132;28;20028;-51
2023/06/08 08:06:02;;;;;;;8.13;4.55;;;28.30;89.80;;;;;;5073644;28;20024;-54
2023/06/08 08:08:28;;;;;;;6.53;4.70;;;28.30;89.20;;;;;;5088663;28;20044;-51
2023/06/08 08:10:53;;;;;;;5.20;4.78;;;28.40;88.80;;;;;;5089870;28;20028;-53
2023/06/08 08:13:18;;;;;;;6.93;5.13;;;27.80;88.90;;;;;;5089334;28;20166;-55
2023/06/08 08:15:45;;;;;;;5.95;4.72;;;27.30;90.40;;;;;;5091534;28;20131;-54
2023/06/08 08:18:12;;;;;;;5.00;4.57;;;27.20;90.30;;;;;;5091573;28;20527;-52
2023/06/08 08:20:38;;;;;;;12.25;5.03;;;26.80;90.70;;;;;;5091529;28;20142;-53
2023/06/08 08:23:05;;;;;;;7.07;5.53;;;26.40;91.60;;;;;;5090964;28;20028;-50
2023/06/08 08:25:31;;;;;;;6.55;4.93;;;26.60;91.50;;;;;;5091380;28;20020;-52
2023/06/08 08:27:57;;;;;;;5.60;5.10;;;26.60;91.90;;;;;;5091560;28;20016;-56
2023/06/08 08:30:22;;;;;;;5.90;5.32;;;27.20;91.80;;;;;;5091549;28;20040;-49
2023/06/08 08:32:48;;;;;;;7.13;6.07;;;26.30;92.00;;;;;;5091069;28;20020;-53
2023/06/08 08:35:14;;;;;;;6.47;5.70;;;26.10;92.20;;;;;;5072908;28;20024;-54
2023/06/08 08:37:42;;;;;;;6.25;5.65;;;26.10;92.50;;;;;;5091579;28;20526;-56
2023/06/08 08:40:09;;;;;;;6.68;6.05;;;25.90;92.30;;;;;;5091392;28;20024;-53
2023/06/08 08:42:41;;;;;;;5.78;5.28;;;25.90;92.70;;;;;;5073035;28;20515;-51
2023/06/08 08:45:09;;;;;;;6.30;5.72;;;25.90;92.80;;;;;;5093211;28;20038;-55
2023/06/08 08:47:37;;;;;;;6.30;5.80;;;26.30;92.60;;;;;;5095578;28;20055;-54
2023/06/08 08:50:06;;;;;;;5.95;5.35;;;;;;;;;;5077829;28;20103;-53
2023/06/08 08:52:37;;;;;;;6.78;6.18;;;26.50;94.80;;;;;;5095279;28;20012;-53
2023/06/08 08:55:06;;;;;;;9.63;5.70;;;26.60;97.70;;;;;;5095167;28;20012;-51
2023/06/08 08:57:32;;;;;;;9.50;5.70;;;26.40;93.10;;;;;;5095368;28;20412;-53
2023/06/08 08:59:58;;;;;;;7.22;5.72;;;26.70;92.50;;;;;;5095300;28;20063;-55
2023/06/08 09:02:25;;;;;;;7.30;5.65;;;26.70;91.90;;;;;;5094740;28;20019;-55
2023/06/08 09:04:54;;;;;;;7.60;5.60;;;26.80;92.20;;;;;;5094784;28;20503;-55
2023/06/08 09:07:21;;;;;;;7.05;5.65;;;27.10;92.00;;;;;;5094806;28;20020;-52
2023/06/08 09:10:19;;;;;;;6.93;5.40;;;27.30;92.50;;;;;;5094339;28;20052;-57
2023/06/08 09:12:47;;;;;;;9.75;6.20;;;27.30;93.30;;;;;;5094228;28;20032;-54
2023/06/08 09:15:16;;;;;;;5.78;5.28;;;27.20;92.00;;;;;;5072808;28;20056;-53
2023/06/08 09:17:44;;;;;;;7.00;5.45;;;27.30;91.80;;;;;;5076726;28;20020;-50
2023/06/08 09:20:10;;;;;;;5.60;4.95;;;27.40;92.70;;;;;;5076793;28;20348;-51
2023/06/08 09:22:36;;;;;;;5.40;4.90;;;27.20;92.40;;;;;;5094624;28;20115;-54
2023/06/08 09:25:06;;;;;;;7.20;5.50;;;26.70;91.70;;;;;;5094304;28;20020;-55
2023/06/08 09:27:32;;;;;;;5.90;5.32;;;26.80;91.90;;;;;;5062933;28;20107;-54
2023/06/08 09:29:59;;;;;;;5.93;5.20;;;26.80;92.70;;;;;;5085093;28;20020;-52
2023/06/08 09:32:32;;;;;;;7.93;5.57;;;26.50;91.30;;;;;;5093915;28;20425;-53
2023/06/08 09:35:03;;;;;;;6.85;5.63;;;26.50;91.50;;;;;;5080741;28;20115;-55
2023/06/08 09:37:31;;;;;;;8.10;5.18;;;26.50;91.60;;;;;;5074478;28;20025;-53
2023/06/08 09:39:58;;;;;;;5.40;4.90;;;26.70;91.70;;;;;;5094755;28;20016;-55
2023/06/08 09:42:39;;;;;;;6.63;6.00;;;27.20;94.00;;;;;;5093992;28;20024;-52
2023/06/08 09:45:12;;;;;;;7.55;5.60;;;27.20;90.70;;;;;;5093935;28;20027;-53
2023/06/08 09:47:38;;;;;;;7.07;5.35;;;27.10;90.80;;;;;;5075673;28;20023;-48
2023/06/08 09:50:09;;;;;;;8.63;5.45;;;26.60;91.10;;;;;;5090799;28;20032;-53
2023/06/08 09:52:36;;;;;;;9.15;5.80;;;26.70;90.90;;;;;;5089323;28;20500;-51
2023/06/08 09:55:03;;;;;;;27.73;24.05;;;26.80;91.10;;;;;;5093321;28;20016;-54
2023/06/08 09:57:33;;;;;;;47.35;36.85;;;26.90;91.80;;;;;;5092299;28;20036;-51
2023/06/08 10:00:17;;;;;;;8.77;6.05;;;26.80;91.50;;;;;;5096837;28;20107;-52
2023/06/08 10:03:03;;;;;;;7.47;5.13;;;26.70;91.40;;;;;;5092057;28;20030;-58
2023/06/08 10:05:33;;;;;;;6.47;5.20;;;26.70;91.30;;;;;;5090129;28;20027;-50
2023/06/08 10:07:59;;;;;;;6.97;5.15;;;26.90;91.40;;;;;;5076631;28;20077;-52
2023/06/08 10:10:38;;;;;;;8.45;5.32;;;26.80;91.10;;;;;;5082167;28;20031;-51
2023/06/08 10:13:05;;;;;;;7.60;4.65;;;26.90;91.20;;;;;;5084633;28;20067;-55
2023/06/08 10:15:32;;;;;;;8.95;4.47;;;26.90;91.10;;;;;;5093601;28;20487;-52
2023/06/08 10:17:59;;;;;;;13.30;6.93;;;26.70;90.70;;;;;;5091662;28;20107;-52
2023/06/08 10:20:25;;;;;;;5.53;5.05;;;26.60;90.50;;;;;;5087839;28;20111;-53
2023/06/08 10:22:51;;;;;;;5.65;4.97;;;26.70;91.20;;;;;;5092948;28;20020;-52
2023/06/08 10:25:18;;;;;;;4.95;4.43;;;26.60;91.50;;;;;;5088985;28;20107;-52
2023/06/08 10:27:51;;;;;;;5.28;4.65;;;26.60;91.50;;;;;;5092606;28;20028;-56
2023/06/08 10:30:41;;;;;;;5.72;5.22;;;26.60;91.60;;;;;;5091978;28;20506;-48
2023/06/08 10:33:08;;;;;;;8.73;4.90;;;26.80;91.30;;;;;;5089739;28;20055;-49
2023/06/08 10:35:34;;;;;;;9.82;5.05;;;26.90;91.20;;;;;;5089070;28;20051;-50
2023/06/08 10:38:14;;;;;;;5.55;4.97;;;26.70;90.80;;;;;;5092212;28;20073;-52
2023/06/08 10:40:46;;;;;;;9.07;5.18;;;26.60;91.20;;;;;;5074695;28;20028;-51
2023/06/08 10:43:12;;;;;;;7.28;5.15;;;26.70;91.50;;;;;;5093100;28;20024;-50
2023/06/08 10:45:40;;;;;;;5.40;4.57;;;26.80;91.70;;;;;;5092861;28;20016;-51
2023/06/08 10:48:10;;;;;;;5.47;4.97;;;26.60;91.50;;;;;;5092764;28;20099;-48
2023/06/08 10:50:39;;;;;;;11.55;7.45;;;26.60;91.60;;;;;;5092868;28;20023;-53
2023/06/08 10:53:05;;;;;;;8.73;5.30;;;26.60;91.60;;;;;;5084615;28;20020;-52
2023/06/08 10:55:31;;;;;;;5.22;4.75;;;26.70;92.00;;;;;;5092804;28;20024;-48
2023/06/08 10:58:06;;;;;;;5.47;4.97;;;26.70;91.10;;;;;;5093112;28;20028;-48
2023/06/08 11:00:33;;;;;;;5.63;4.70;;;26.80;91.50;;;;;;5075154;28;20058;-53
2023/06/08 11:03:00;;;;;;;6.53;5.22;;;26.80;91.20;;;;;;5091974;28;20480;-46
2023/06/08 11:05:31;;;;;;;6.47;4.55;;;26.90;91.60;;;;;;5087548;28;20033;-46
2023/06/08 11:07:56;;;;;;;7.80;5.78;;;26.90;91.50;;;;;;5091026;28;20031;-51
2023/06/08 11:10:23;;;;;;;9.32;5.28;;;27.00;91.40;;;;;;5091914;28;20487;-47
2023/06/08 11:12:49;;;;;;;9.00;5.03;;;26.80;91.20;;;;;;5092695;28;20032;-47
2023/06/08 11:15:15;;;;;;;5.95;5.25;;;26.60;91.20;;;;;;5092183;28;20560;-50
2023/06/08 11:17:57;;;;;;;5.97;4.85;;;26.70;91.40;;;;;;5071561;28;20026;-48
2023/06/08 11:20:27;;;;;;;6.82;5.20;;;26.80;91.40;;;;;;5072289;28;20078;-50
2023/06/08 11:22:53;;;;;;;5.72;5.15;;;26.90;91.60;;;;;;5080966;28;20028;-48
2023/06/08 11:25:20;;;;;;;7.82;5.43;;;26.90;91.40;;;;;;5073482;28;20063;-55
2023/06/08 11:27:46;;;;;;;7.30;5.85;;;26.90;91.30;;;;;;5091794;28;20019;-52
2023/06/08 11:30:18;;;;;;;6.18;4.88;;;26.80;92.00;;;;;;5092555;28;20020;-46
2023/06/08 11:32:47;;;;;;;4.75;4.32;;;26.90;91.10;;;;;;5092128;28;20077;-53
2023/06/08 11:35:13;;;;;;;6.07;4.78;;;27.00;90.60;;;;;;5092089;28;20079;-54
2023/06/08 11:37:41;;;;;;;5.55;4.55;;;26.90;90.90;;;;;;5092041;28;20103;-53
2023/06/08 11:40:14;;;;;;;13.80;7.38;;;27.00;91.30;;;;;;5087427;28;20483;-55
2023/06/08 11:42:41;;;;;;;5.82;4.88;;;27.10;90.40;;;;;;5091435;28;20497;-50
2023/06/08 11:45:12;;;;;;;6.10;4.65;;;27.20;90.30;;;;;;5091819;28;20021;-53
2023/06/08 11:47:42;;;;;;;6.43;4.95;;;27.20;90.50;;;;;;5092306;28;20463;-54
2023/06/08 11:50:09;;;;;;;4.90;4.50;;;27.10;90.70;;;;;;5091620;28;20028;-54
2023/06/08 11:52:39;;;;;;;9.82;4.72;;;27.10;90.40;;;;;;5073269;28;20027;-49
2023/06/08 11:55:15;;;;;;;5.10;4.45;;;27.20;90.60;;;;;;5073335;28;20248;-45
2023/06/08 11:57:42;;;;;;;5.22;4.82;;;27.30;90.00;;;;;;5092555;28;20026;-46
2023/06/08 12:00:21;;;;;;;11.90;4.88;;;27.30;90.20;;;;;;5085959;28;20027;-52
2023/06/08 12:02:49;;;;;;;6.90;5.90;;;27.30;90.10;;;;;;5087077;28;20522;-51
2023/06/08 12:05:16;;;;;;;5.38;4.88;;;27.50;90.90;;;;;;5089867;28;20429;-51
2023/06/08 12:08:02;;;;;;;6.28;5.05;;;27.50;88.80;;;;;;5091079;28;20016;-50
2023/06/08 12:10:35;;;;;;;4.72;4.38;;;27.30;88.80;;;;;;5086509;28;20031;-52
2023/06/08 12:13:12;;;;;;;5.15;4.65;;;27.20;88.40;;;;;;5090462;28;20047;-49
2023/06/08 12:15:41;;;;;;;5.07;4.65;;;27.00;89.20;;;;;;5091688;28;20021;-50
2023/06/08 12:18:07;;;;;;;7.00;4.97;;;27.00;88.80;;;;;;5091422;28;20104;-49
2023/06/08 12:20:33;;;;;;;5.07;4.68;;;27.00;87.50;;;;;;5092560;28;20111;-50
2023/06/08 12:22:59;;;;;;;9.63;8.32;;;26.90;88.80;;;;;;5095748;28;20032;-50
2023/06/08 12:25:25;;;;;;;6.60;4.78;;;27.00;88.30;;;;;;5099430;28;20052;-61
2023/06/08 12:27:50;;;;;;;5.45;4.80;;;26.90;88.20;;;;;;5098347;28;20069;-53
2023/06/08 12:30:16;;;;;;;8.27;4.50;;;26.90;88.40;;;;;;5090057;28;20025;-49
2023/06/08 12:32:42;;;;;;;5.18;4.68;;;26.90;89.20;;;;;;5090443;28;20024;-48
2023/06/08 12:35:08;;;;;;;6.70;4.82;;;26.90;89.90;;;;;;5090836;28;20032;-46
2023/06/08 12:37:33;;;;;;;7.60;4.40;;;26.90;88.70;;;;;;5091341;28;20488;-48
2023/06/08 12:40:00;;;;;;;6.03;4.82;;;26.80;88.80;;;;;;5091247;28;20391;-50
2023/06/08 12:42:26;;;;;;;7.55;4.95;;;26.80;90.00;;;;;;5090651;28;20020;-47
2023/06/08 12:44:52;;;;;;;6.22;4.75;;;26.80;90.20;;;;;;5090223;28;20031;-50
2023/06/08 12:47:19;;;;;;;6.18;5.30;;;26.70;90.40;;;;;;5091388;28;20083;-48
2023/06/08 12:49:45;;;;;;;5.30;4.80;;;26.70;90.30;;;;;;5090809;28;20024;-46